sensor_id;sensor_type;location;lat;lon;timestamp;temperature;humidity
34135;DHT22;20410;55.578;12.968;2023-04-24T00:01:31;8.70;1.00
34135;DHT22;20410;55.578;12.968;2023-04-24T00:03:57;8.70;1.00
34135;DHT22;20410;55.578;12.968;2023-04-24T00:06:25;8.70;1.00
34135;DHT22;20410;55.578;12.968;2023-04-24T00:08:59;8.70;1.00
34135;DHT22;20410;55.578;12.968;2023-04-24T00:11:24;8.70;1.00
34135;DHT22;20410;55.578;12.968;2023-04-24T00:13:50;8.70;1.00
34135;DHT22;20410;55.578;12.968;2023-04-24T00:16:15;8.60;1.00
34135;DHT22;20410;55.578;12.968;2023-04-24T00:18:41;8.60;1.00
34135;DHT22;20410;55.578;12.968;2023-04-24T00:21:06;8.60;1.00
34135;DHT22;20410;55.578;12.968;2023-04-24T00:23:32;8.60;1.00
34135;DHT22;20410;55.578;12.968;2023-04-24T00:25:58;8.60;1.00
34135;DHT22;20410;55.578;12.968;2023-04-24T00:28:23;8.60;1.00
34135;DHT22;20410;55.578;12.968;2023-04-24T00:30:49;8.60;1.00
34135;DHT22;20410;55.578;12.968;2023-04-24T00:33:14;8.70;1.00
34135;DHT22;20410;55.578;12.968;2023-04-24T00:35:40;8.80;1.00
34135;DHT22;20410;55.578;12.968;2023-04-24T00:38:06;8.80;1.00
34135;DHT22;20410;55.578;12.968;2023-04-24T00:40:31;8.80;1.00
34135;DHT22;20410;55.578;12.968;2023-04-24T00:42:57;8.80;1.00
34135;DHT22;20410;55.578;12.968;2023-04-24T00:45:23;8.80;1.00
34135;DHT22;20410;55.578;12.968;2023-04-24T00:47:48;8.90;1.00
34135;DHT22;20410;55.578;12.968;2023-04-24T00:50:15;8.80;1.00
34135;DHT22;20410;55.578;12.968;2023-04-24T00:52:41;8.90;1.00
34135;DHT22;20410;55.578;12.968;2023-04-24T00:55:07;8.90;1.00
34135;DHT22;20410;55.578;12.968;2023-04-24T00:57:33;8.90;1.00
34135;DHT22;20410;55.578;12.968;2023-04-24T00:59:58;8.90;1.00
34135;DHT22;20410;55.578;12.968;2023-04-24T01:02:24;8.90;1.00
34135;DHT22;20410;55.578;12.968;2023-04-24T01:04:51;8.90;1.00
34135;DHT22;20410;55.578;12.968;2023-04-24T01:07:19;8.90;1.00
34135;DHT22;20410;55.578;12.968;2023-04-24T01:09:47;8.90;1.00
34135;DHT22;20410;55.578;12.968;2023-04-24T01:12:15;8.90;1.00
34135;DHT22;20410;55.578;12.968;2023-04-24T01:14:40;8.90;1.00
34135;DHT22;20410;55.578;12.968;2023-04-24T01:17:06;8.90;1.00
34135;DHT22;20410;55.578;12.968;2023-04-24T01:19:32;9.00;1.00
34135;DHT22;20410;55.578;12.968;2023-04-24T01:21:58;9.00;1.00
34135;DHT22;20410;55.578;12.968;2023-04-24T01:24:27;9.10;1.00
34135;DHT22;20410;55.578;12.968;2023-04-24T01:26:53;9.10;1.00
34135;DHT22;20410;55.578;12.968;2023-04-24T01:29:19;9.10;1.00
34135;DHT22;20410;55.578;12.968;2023-04-24T01:31:45;9.00;1.00
34135;DHT22;20410;55.578;12.968;2023-04-24T01:34:11;9.00;1.00
34135;DHT22;20410;55.578;12.968;2023-04-24T01:36:37;9.00;1.00
34135;DHT22;20410;55.578;12.968;2023-04-24T01:39:04;9.00;1.00
34135;DHT22;20410;55.578;12.968;2023-04-24T01:41:30;9.00;1.00
34135;DHT22;20410;55.578;12.968;2023-04-24T01:43:57;9.00;1.00
34135;DHT22;20410;55.578;12.968;2023-04-24T01:46:24;8.90;1.00
34135;DHT22;20410;55.578;12.968;2023-04-24T01:48:51;8.90;1.00
34135;DHT22;20410;55.578;12.968;2023-04-24T01:51:17;8.90;1.00
34135;DHT22;20410;55.578;12.968;2023-04-24T01:53:42;8.90;1.00
34135;DHT22;20410;55.578;12.968;2023-04-24T01:56:08;8.90;1.00
34135;DHT22;20410;55.578;12.968;2023-04-24T01:58:35;8.90;1.00
34135;DHT22;20410;55.578;12.968;2023-04-24T02:01:00;8.90;1.00
34135;DHT22;20410;55.578;12.968;2023-04-24T02:03:26;8.90;1.00
34135;DHT22;20410;55.578;12.968;2023-04-24T02:05:52;8.80;1.00
34135;DHT22;20410;55.578;12.968;2023-04-24T02:08:17;8.90;1.00
34135;DHT22;20410;55.578;12.968;2023-04-24T02:10:43;8.90;1.00
34135;DHT22;20410;55.578;12.968;2023-04-24T02:13:09;8.90;13.60
34135;DHT22;20410;55.578;12.968;2023-04-24T02:15:35;8.90;21.90
34135;DHT22;20410;55.578;12.968;2023-04-24T02:18:01;9.00;27.10
34135;DHT22;20410;55.578;12.968;2023-04-24T02:20:27;9.00;36.00
34135;DHT22;20410;55.578;12.968;2023-04-24T02:22:52;9.10;36.90
34135;DHT22;20410;55.578;12.968;2023-04-24T02:25:18;9.10;39.90
34135;DHT22;20410;55.578;12.968;2023-04-24T02:27:44;9.10;43.60
34135;DHT22;20410;55.578;12.968;2023-04-24T02:30:09;9.20;45.40
34135;DHT22;20410;55.578;12.968;2023-04-24T02:32:35;9.30;37.20
34135;DHT22;20410;55.578;12.968;2023-04-24T02:35:01;9.30;37.20
34135;DHT22;20410;55.578;12.968;2023-04-24T02:37:26;9.40;38.00
34135;DHT22;20410;55.578;12.968;2023-04-24T02:39:52;9.40;41.60
34135;DHT22;20410;55.578;12.968;2023-04-24T02:42:18;9.50;35.60
34135;DHT22;20410;55.578;12.968;2023-04-24T02:44:43;9.50;38.70
34135;DHT22;20410;55.578;12.968;2023-04-24T02:47:09;9.50;52.90
34135;DHT22;20410;55.578;12.968;2023-04-24T02:49:34;9.60;47.00
34135;DHT22;20410;55.578;12.968;2023-04-24T02:52:00;9.60;40.80
34135;DHT22;20410;55.578;12.968;2023-04-24T02:54:26;9.70;31.00
34135;DHT22;20410;55.578;12.968;2023-04-24T02:56:51;9.70;35.70
34135;DHT22;20410;55.578;12.968;2023-04-24T02:59:17;9.70;55.10
34135;DHT22;20410;55.578;12.968;2023-04-24T03:01:42;9.80;59.40
34135;DHT22;20410;55.578;12.968;2023-04-24T03:04:08;9.80;49.80
34135;DHT22;20410;55.578;12.968;2023-04-24T03:06:33;9.90;47.30
34135;DHT22;20410;55.578;12.968;2023-04-24T03:09:00;9.90;54.20
34135;DHT22;20410;55.578;12.968;2023-04-24T03:11:26;9.90;52.40
34135;DHT22;20410;55.578;12.968;2023-04-24T03:13:52;9.90;45.60
34135;DHT22;20410;55.578;12.968;2023-04-24T03:16:17;10.00;50.70
34135;DHT22;20410;55.578;12.968;2023-04-24T03:18:43;10.00;57.00
34135;DHT22;20410;55.578;12.968;2023-04-24T03:21:08;10.10;58.90
34135;DHT22;20410;55.578;12.968;2023-04-24T03:23:34;10.00;63.90
34135;DHT22;20410;55.578;12.968;2023-04-24T03:26:00;10.00;81.00
34135;DHT22;20410;55.578;12.968;2023-04-24T03:28:26;10.00;84.50
34135;DHT22;20410;55.578;12.968;2023-04-24T03:30:52;10.10;85.90
34135;DHT22;20410;55.578;12.968;2023-04-24T03:33:17;10.10;78.00
34135;DHT22;20410;55.578;12.968;2023-04-24T03:35:43;10.10;89.00
34135;DHT22;20410;55.578;12.968;2023-04-24T03:38:08;10.10;94.00
34135;DHT22;20410;55.578;12.968;2023-04-24T03:40:34;10.10;96.40
34135;DHT22;20410;55.578;12.968;2023-04-24T03:42:59;10.10;87.20
34135;DHT22;20410;55.578;12.968;2023-04-24T03:45:25;10.00;89.30
34135;DHT22;20410;55.578;12.968;2023-04-24T03:47:51;10.00;95.60
34135;DHT22;20410;55.578;12.968;2023-04-24T03:50:16;10.10;96.90
34135;DHT22;20410;55.578;12.968;2023-04-24T03:52:42;10.00;98.00
34135;DHT22;20410;55.578;12.968;2023-04-24T03:55:08;10.00;99.90
34135;DHT22;20410;55.578;12.968;2023-04-24T03:57:33;10.00;99.90
34135;DHT22;20410;55.578;12.968;2023-04-24T03:59:59;10.00;99.90
34135;DHT22;20410;55.578;12.968;2023-04-24T04:02:25;10.10;99.90
34135;DHT22;20410;55.578;12.968;2023-04-24T04:04:50;10.10;99.90
34135;DHT22;20410;55.578;12.968;2023-04-24T04:07:16;10.10;99.90
34135;DHT22;20410;55.578;12.968;2023-04-24T04:09:42;10.10;99.90
34135;DHT22;20410;55.578;12.968;2023-04-24T04:12:07;10.10;99.90
34135;DHT22;20410;55.578;12.968;2023-04-24T04:14:33;10.10;99.90
34135;DHT22;20410;55.578;12.968;2023-04-24T04:16:58;10.10;99.90
34135;DHT22;20410;55.578;12.968;2023-04-24T04:19:24;10.10;99.90
34135;DHT22;20410;55.578;12.968;2023-04-24T04:21:50;10.10;99.90
34135;DHT22;20410;55.578;12.968;2023-04-24T04:24:21;10.10;99.90
34135;DHT22;20410;55.578;12.968;2023-04-24T04:26:47;10.20;99.90
34135;DHT22;20410;55.578;12.968;2023-04-24T04:29:17;10.30;99.90
34135;DHT22;20410;55.578;12.968;2023-04-24T04:31:44;10.30;99.90
34135;DHT22;20410;55.578;12.968;2023-04-24T04:34:10;10.40;99.90
34135;DHT22;20410;55.578;12.968;2023-04-24T04:36:36;10.50;99.90
34135;DHT22;20410;55.578;12.968;2023-04-24T04:39:05;10.50;99.90
34135;DHT22;20410;55.578;12.968;2023-04-24T04:41:31;10.50;99.90
34135;DHT22;20410;55.578;12.968;2023-04-24T04:43:57;10.60;99.90
34135;DHT22;20410;55.578;12.968;2023-04-24T04:46:25;10.60;99.90
34135;DHT22;20410;55.578;12.968;2023-04-24T04:48:52;10.70;99.90
34135;DHT22;20410;55.578;12.968;2023-04-24T04:51:18;10.70;99.90
34135;DHT22;20410;55.578;12.968;2023-04-24T04:53:43;10.70;99.90
34135;DHT22;20410;55.578;12.968;2023-04-24T04:56:09;10.80;99.90
34135;DHT22;20410;55.578;12.968;2023-04-24T04:58:34;10.90;99.90
34135;DHT22;20410;55.578;12.968;2023-04-24T05:01:00;11.00;96.40
34135;DHT22;20410;55.578;12.968;2023-04-24T05:03:26;11.00;90.70
34135;DHT22;20410;55.578;12.968;2023-04-24T05:05:51;11.00;86.00
34135;DHT22;20410;55.578;12.968;2023-04-24T05:08:17;11.00;81.40
34135;DHT22;20410;55.578;12.968;2023-04-24T05:10:42;11.10;81.80
34135;DHT22;20410;55.578;12.968;2023-04-24T05:13:08;11.10;84.90
34135;DHT22;20410;55.578;12.968;2023-04-24T05:15:34;11.10;76.90
34135;DHT22;20410;55.578;12.968;2023-04-24T05:17:59;11.00;77.50
34135;DHT22;20410;55.578;12.968;2023-04-24T05:20:25;11.00;78.00
34135;DHT22;20410;55.578;12.968;2023-04-24T05:22:51;11.00;79.10
34135;DHT22;20410;55.578;12.968;2023-04-24T05:25:16;11.00;82.70
34135;DHT22;20410;55.578;12.968;2023-04-24T05:27:42;11.00;91.80
34135;DHT22;20410;55.578;12.968;2023-04-24T05:30:08;11.00;91.00
34135;DHT22;20410;55.578;12.968;2023-04-24T05:32:34;11.00;81.80
34135;DHT22;20410;55.578;12.968;2023-04-24T05:35:00;11.00;84.20
34135;DHT22;20410;55.578;12.968;2023-04-24T05:37:26;11.00;85.80
34135;DHT22;20410;55.578;12.968;2023-04-24T05:39:52;11.00;76.70
34135;DHT22;20410;55.578;12.968;2023-04-24T05:42:17;11.00;76.10
34135;DHT22;20410;55.578;12.968;2023-04-24T05:44:43;11.10;71.80
34135;DHT22;20410;55.578;12.968;2023-04-24T05:47:09;11.00;79.60
34135;DHT22;20410;55.578;12.968;2023-04-24T05:49:34;11.00;77.80
34135;DHT22;20410;55.578;12.968;2023-04-24T05:52:00;11.00;69.80
34135;DHT22;20410;55.578;12.968;2023-04-24T05:54:25;11.10;70.00
34135;DHT22;20410;55.578;12.968;2023-04-24T05:56:51;11.10;59.60
34135;DHT22;20410;55.578;12.968;2023-04-24T05:59:17;11.20;60.00
34135;DHT22;20410;55.578;12.968;2023-04-24T06:01:42;11.30;58.60
34135;DHT22;20410;55.578;12.968;2023-04-24T06:04:08;11.40;57.30
34135;DHT22;20410;55.578;12.968;2023-04-24T06:06:35;11.40;57.70
34135;DHT22;20410;55.578;12.968;2023-04-24T06:09:00;11.60;49.00
34135;DHT22;20410;55.578;12.968;2023-04-24T06:11:26;11.60;48.40
34135;DHT22;20410;55.578;12.968;2023-04-24T06:13:51;11.70;36.40
34135;DHT22;20410;55.578;12.968;2023-04-24T06:16:17;11.80;28.80
34135;DHT22;20410;55.578;12.968;2023-04-24T06:18:43;11.80;27.20
34135;DHT22;20410;55.578;12.968;2023-04-24T06:21:08;11.80;17.60
34135;DHT22;20410;55.578;12.968;2023-04-24T06:23:34;11.80;11.40
34135;DHT22;20410;55.578;12.968;2023-04-24T06:26:00;11.90;9.60
34135;DHT22;20410;55.578;12.968;2023-04-24T06:28:25;11.90;3.10
34135;DHT22;20410;55.578;12.968;2023-04-24T06:30:51;11.90;4.40
34135;DHT22;20410;55.578;12.968;2023-04-24T06:33:17;12.00;10.40
34135;DHT22;20410;55.578;12.968;2023-04-24T06:35:42;12.10;1.00
34135;DHT22;20410;55.578;12.968;2023-04-24T06:38:08;12.10;1.00
34135;DHT22;20410;55.578;12.968;2023-04-24T06:40:34;12.10;1.00
34135;DHT22;20410;55.578;12.968;2023-04-24T06:42:59;12.10;1.00
34135;DHT22;20410;55.578;12.968;2023-04-24T06:45:28;12.10;1.00
34135;DHT22;20410;55.578;12.968;2023-04-24T06:47:54;12.10;1.00
34135;DHT22;20410;55.578;12.968;2023-04-24T06:50:19;12.20;1.00
34135;DHT22;20410;55.578;12.968;2023-04-24T06:52:45;12.20;1.00
34135;DHT22;20410;55.578;12.968;2023-04-24T06:55:11;12.20;1.00
34135;DHT22;20410;55.578;12.968;2023-04-24T06:57:37;12.20;1.00
34135;DHT22;20410;55.578;12.968;2023-04-24T07:00:04;12.20;1.00
34135;DHT22;20410;55.578;12.968;2023-04-24T07:02:31;12.20;1.00
34135;DHT22;20410;55.578;12.968;2023-04-24T07:04:57;12.20;1.00
34135;DHT22;20410;55.578;12.968;2023-04-24T07:07:23;12.20;1.00
34135;DHT22;20410;55.578;12.968;2023-04-24T07:09:49;12.20;1.00
34135;DHT22;20410;55.578;12.968;2023-04-24T07:12:16;12.10;1.00
34135;DHT22;20410;55.578;12.968;2023-04-24T07:14:42;12.10;1.00
34135;DHT22;20410;55.578;12.968;2023-04-24T07:17:08;12.10;1.00
34135;DHT22;20410;55.578;12.968;2023-04-24T07:19:34;12.10;1.00
34135;DHT22;20410;55.578;12.968;2023-04-24T07:22:01;12.00;1.00
34135;DHT22;20410;55.578;12.968;2023-04-24T07:24:26;12.00;1.00
34135;DHT22;20410;55.578;12.968;2023-04-24T07:26:53;11.90;1.00
34135;DHT22;20410;55.578;12.968;2023-04-24T07:29:19;11.80;1.00
34135;DHT22;20410;55.578;12.968;2023-04-24T07:31:45;11.70;1.00
34135;DHT22;20410;55.578;12.968;2023-04-24T07:34:10;11.60;1.00
34135;DHT22;20410;55.578;12.968;2023-04-24T07:36:36;11.60;1.00
34135;DHT22;20410;55.578;12.968;2023-04-24T07:39:07;11.50;1.00
34135;DHT22;20410;55.578;12.968;2023-04-24T07:41:33;11.40;1.00
34135;DHT22;20410;55.578;12.968;2023-04-24T07:43:59;11.40;1.00
34135;DHT22;20410;55.578;12.968;2023-04-24T07:46:24;11.40;1.00
34135;DHT22;20410;55.578;12.968;2023-04-24T07:48:50;11.30;1.00
34135;DHT22;20410;55.578;12.968;2023-04-24T07:51:16;11.40;1.00
34135;DHT22;20410;55.578;12.968;2023-04-24T07:53:43;11.40;1.00
34135;DHT22;20410;55.578;12.968;2023-04-24T07:56:09;11.30;1.00
34135;DHT22;20410;55.578;12.968;2023-04-24T07:58:35;11.40;1.00
34135;DHT22;20410;55.578;12.968;2023-04-24T08:01:01;11.40;1.00
34135;DHT22;20410;55.578;12.968;2023-04-24T08:03:26;11.40;1.00
34135;DHT22;20410;55.578;12.968;2023-04-24T08:05:52;11.30;1.00
34135;DHT22;20410;55.578;12.968;2023-04-24T08:08:19;11.40;1.00
34135;DHT22;20410;55.578;12.968;2023-04-24T08:10:45;11.40;1.00
34135;DHT22;20410;55.578;12.968;2023-04-24T08:13:10;11.40;1.00
34135;DHT22;20410;55.578;12.968;2023-04-24T08:15:36;11.40;1.00
34135;DHT22;20410;55.578;12.968;2023-04-24T08:18:02;11.40;1.00
34135;DHT22;20410;55.578;12.968;2023-04-24T08:20:28;11.40;1.00
34135;DHT22;20410;55.578;12.968;2023-04-24T08:22:53;11.50;1.00
34135;DHT22;20410;55.578;12.968;2023-04-24T08:25:20;11.50;1.00
34135;DHT22;20410;55.578;12.968;2023-04-24T08:27:48;11.60;1.00
34135;DHT22;20410;55.578;12.968;2023-04-24T08:30:14;11.70;1.00
34135;DHT22;20410;55.578;12.968;2023-04-24T08:32:39;11.70;1.00
34135;DHT22;20410;55.578;12.968;2023-04-24T08:35:05;11.80;1.00
34135;DHT22;20410;55.578;12.968;2023-04-24T08:37:31;11.80;1.00
34135;DHT22;20410;55.578;12.968;2023-04-24T08:39:57;11.90;1.00
34135;DHT22;20410;55.578;12.968;2023-04-24T08:42:23;11.90;1.00
34135;DHT22;20410;55.578;12.968;2023-04-24T08:44:49;11.90;1.00
34135;DHT22;20410;55.578;12.968;2023-04-24T08:47:16;11.90;1.00
34135;DHT22;20410;55.578;12.968;2023-04-24T08:49:42;12.00;1.00
34135;DHT22;20410;55.578;12.968;2023-04-24T08:52:08;11.90;1.00
34135;DHT22;20410;55.578;12.968;2023-04-24T08:54:37;11.90;1.00
34135;DHT22;20410;55.578;12.968;2023-04-24T08:57:04;11.90;1.00
34135;DHT22;20410;55.578;12.968;2023-04-24T08:59:33;11.80;1.00
34135;DHT22;20410;55.578;12.968;2023-04-24T09:02:02;11.80;1.00
34135;DHT22;20410;55.578;12.968;2023-04-24T09:04:29;11.80;1.00
34135;DHT22;20410;55.578;12.968;2023-04-24T09:06:56;11.80;1.00
34135;DHT22;20410;55.578;12.968;2023-04-24T09:09:23;11.80;1.00
34135;DHT22;20410;55.578;12.968;2023-04-24T09:11:49;11.70;1.00
34135;DHT22;20410;55.578;12.968;2023-04-24T09:14:16;11.70;1.00
34135;DHT22;20410;55.578;12.968;2023-04-24T09:16:42;11.60;1.00
34135;DHT22;20410;55.578;12.968;2023-04-24T09:19:08;11.60;1.00
34135;DHT22;20410;55.578;12.968;2023-04-24T09:21:35;11.60;1.00
34135;DHT22;20410;55.578;12.968;2023-04-24T09:24:05;11.60;1.00
34135;DHT22;20410;55.578;12.968;2023-04-24T09:26:31;11.50;1.00
34135;DHT22;20410;55.578;12.968;2023-04-24T09:28:59;11.50;1.00
34135;DHT22;20410;55.578;12.968;2023-04-24T09:31:27;11.60;1.00
34135;DHT22;20410;55.578;12.968;2023-04-24T09:33:59;11.60;1.00
34135;DHT22;20410;55.578;12.968;2023-04-24T09:39:03;11.70;1.00
34135;DHT22;20410;55.578;12.968;2023-04-24T09:41:32;11.70;1.00
34135;DHT22;20410;55.578;12.968;2023-04-24T09:44:17;11.80;1.00
34135;DHT22;20410;55.578;12.968;2023-04-24T09:46:44;11.80;1.00
34135;DHT22;20410;55.578;12.968;2023-04-24T09:49:13;11.90;1.00
34135;DHT22;20410;55.578;12.968;2023-04-24T09:51:40;12.00;1.00
34135;DHT22;20410;55.578;12.968;2023-04-24T09:54:19;12.00;1.00
34135;DHT22;20410;55.578;12.968;2023-04-24T09:56:48;12.00;1.00
34135;DHT22;20410;55.578;12.968;2023-04-24T09:59:15;12.00;1.00
34135;DHT22;20410;55.578;12.968;2023-04-24T10:01:41;12.00;1.00
34135;DHT22;20410;55.578;12.968;2023-04-24T10:04:16;11.90;1.00
34135;DHT22;20410;55.578;12.968;2023-04-24T10:06:42;12.00;1.00
34135;DHT22;20410;55.578;12.968;2023-04-24T10:09:08;12.10;1.00
34135;DHT22;20410;55.578;12.968;2023-04-24T10:11:37;12.30;1.00
34135;DHT22;20410;55.578;12.968;2023-04-24T10:14:03;12.40;1.00
34135;DHT22;20410;55.578;12.968;2023-04-24T10:16:31;12.50;1.00
34135;DHT22;20410;55.578;12.968;2023-04-24T10:18:59;12.50;1.00
34135;DHT22;20410;55.578;12.968;2023-04-24T10:21:26;12.50;1.00
34135;DHT22;20410;55.578;12.968;2023-04-24T10:23:53;12.60;1.00
34135;DHT22;20410;55.578;12.968;2023-04-24T10:26:19;12.60;1.00
34135;DHT22;20410;55.578;12.968;2023-04-24T10:28:46;12.70;1.00
34135;DHT22;20410;55.578;12.968;2023-04-24T10:31:13;12.80;1.00
34135;DHT22;20410;55.578;12.968;2023-04-24T10:33:40;12.90;1.00
34135;DHT22;20410;55.578;12.968;2023-04-24T10:36:09;13.10;1.00
34135;DHT22;20410;55.578;12.968;2023-04-24T10:38:35;13.20;1.00
34135;DHT22;20410;55.578;12.968;2023-04-24T10:41:08;13.40;1.00
34135;DHT22;20410;55.578;12.968;2023-04-24T10:43:35;13.70;1.00
34135;DHT22;20410;55.578;12.968;2023-04-24T10:46:05;13.80;1.00
34135;DHT22;20410;55.578;12.968;2023-04-24T10:48:33;14.00;1.00
34135;DHT22;20410;55.578;12.968;2023-04-24T10:50:59;14.20;1.00
34135;DHT22;20410;55.578;12.968;2023-04-24T10:53:30;14.30;1.00
34135;DHT22;20410;55.578;12.968;2023-04-24T10:56:07;14.60;1.00
34135;DHT22;20410;55.578;12.968;2023-04-24T10:58:45;14.90;1.00
34135;DHT22;20410;55.578;12.968;2023-04-24T11:01:29;15.20;1.00
34135;DHT22;20410;55.578;12.968;2023-04-24T11:03:59;15.50;1.00
34135;DHT22;20410;55.578;12.968;2023-04-24T11:06:36;15.70;1.00
34135;DHT22;20410;55.578;12.968;2023-04-24T11:09:09;16.00;1.00
34135;DHT22;20410;55.578;12.968;2023-04-24T11:11:38;16.20;1.00
34135;DHT22;20410;55.578;12.968;2023-04-24T11:14:09;16.40;1.00
34135;DHT22;20410;55.578;12.968;2023-04-24T11:37:41;17.20;1.00
34135;DHT22;20410;55.578;12.968;2023-04-24T11:40:11;17.10;1.00
34135;DHT22;20410;55.578;12.968;2023-04-24T11:42:43;17.20;1.00
34135;DHT22;20410;55.578;12.968;2023-04-24T11:45:11;17.40;1.00
34135;DHT22;20410;55.578;12.968;2023-04-24T11:47:37;17.60;1.00
34135;DHT22;20410;55.578;12.968;2023-04-24T11:50:05;17.70;1.00
34135;DHT22;20410;55.578;12.968;2023-04-24T11:52:31;17.80;1.00
34135;DHT22;20410;55.578;12.968;2023-04-24T11:54:57;17.90;1.00
34135;DHT22;20410;55.578;12.968;2023-04-24T11:57:24;18.00;1.00
34135;DHT22;20410;55.578;12.968;2023-04-24T11:59:53;18.10;1.00
34135;DHT22;20410;55.578;12.968;2023-04-24T12:02:25;18.10;1.00
34135;DHT22;20410;55.578;12.968;2023-04-24T12:04:52;18.20;1.00
34135;DHT22;20410;55.578;12.968;2023-04-24T12:07:18;18.20;1.00
34135;DHT22;20410;55.578;12.968;2023-04-24T12:09:46;18.30;1.00
34135;DHT22;20410;55.578;12.968;2023-04-24T12:12:17;18.50;1.00
34135;DHT22;20410;55.578;12.968;2023-04-24T12:14:51;18.60;1.00
34135;DHT22;20410;55.578;12.968;2023-04-24T12:17:17;18.60;1.00
34135;DHT22;20410;55.578;12.968;2023-04-24T12:19:48;18.50;1.00
34135;DHT22;20410;55.578;12.968;2023-04-24T12:22:16;18.50;1.00
34135;DHT22;20410;55.578;12.968;2023-04-24T12:24:57;18.60;1.00
34135;DHT22;20410;55.578;12.968;2023-04-24T12:27:24;18.60;1.00
34135;DHT22;20410;55.578;12.968;2023-04-24T12:29:55;18.70;1.00
34135;DHT22;20410;55.578;12.968;2023-04-24T12:32:21;18.70;1.00
34135;DHT22;20410;55.578;12.968;2023-04-24T12:34:46;18.70;1.00
34135;DHT22;20410;55.578;12.968;2023-04-24T12:37:12;18.80;1.00
34135;DHT22;20410;55.578;12.968;2023-04-24T12:39:38;18.90;1.00
34135;DHT22;20410;55.578;12.968;2023-04-24T12:42:03;18.90;1.00
34135;DHT22;20410;55.578;12.968;2023-04-24T12:44:33;18.80;1.00
34135;DHT22;20410;55.578;12.968;2023-04-24T12:47:00;18.90;1.00
34135;DHT22;20410;55.578;12.968;2023-04-24T12:49:27;18.90;1.00
34135;DHT22;20410;55.578;12.968;2023-04-24T12:51:53;19.00;1.00
34135;DHT22;20410;55.578;12.968;2023-04-24T12:54:19;19.00;1.00
34135;DHT22;20410;55.578;12.968;2023-04-24T12:56:45;19.10;1.00
34135;DHT22;20410;55.578;12.968;2023-04-24T12:59:11;18.90;99.90
34135;DHT22;20410;55.578;12.968;2023-04-24T13:01:36;18.90;99.90
34135;DHT22;20410;55.578;12.968;2023-04-24T13:04:02;19.00;1.00
34135;DHT22;20410;55.578;12.968;2023-04-24T13:06:27;19.00;99.90
34135;DHT22;20410;55.578;12.968;2023-04-24T13:08:53;19.00;99.90
34135;DHT22;20410;55.578;12.968;2023-04-24T13:11:20;19.00;99.90
34135;DHT22;20410;55.578;12.968;2023-04-24T13:13:47;19.00;99.90
34135;DHT22;20410;55.578;12.968;2023-04-24T13:16:13;19.00;99.90
34135;DHT22;20410;55.578;12.968;2023-04-24T13:18:38;19.00;1.00
34135;DHT22;20410;55.578;12.968;2023-04-24T13:21:04;19.00;99.90
34135;DHT22;20410;55.578;12.968;2023-04-24T13:23:29;19.00;99.90
34135;DHT22;20410;55.578;12.968;2023-04-24T13:25:55;18.90;99.90
34135;DHT22;20410;55.578;12.968;2023-04-24T13:28:24;18.90;99.90
34135;DHT22;20410;55.578;12.968;2023-04-24T13:30:50;18.90;99.90
34135;DHT22;20410;55.578;12.968;2023-04-24T13:33:16;18.80;99.90
34135;DHT22;20410;55.578;12.968;2023-04-24T13:35:41;18.80;1.00
34135;DHT22;20410;55.578;12.968;2023-04-24T13:38:07;18.90;99.90
34135;DHT22;20410;55.578;12.968;2023-04-24T13:40:33;18.90;99.90
34135;DHT22;20410;55.578;12.968;2023-04-24T13:42:59;18.90;99.90
34135;DHT22;20410;55.578;12.968;2023-04-24T13:45:24;18.80;99.90
34135;DHT22;20410;55.578;12.968;2023-04-24T13:47:50;18.80;99.90
34135;DHT22;20410;55.578;12.968;2023-04-24T13:50:16;18.60;99.90
34135;DHT22;20410;55.578;12.968;2023-04-24T13:52:41;18.50;99.90
34135;DHT22;20410;55.578;12.968;2023-04-24T13:55:07;18.40;99.90
34135;DHT22;20410;55.578;12.968;2023-04-24T13:57:33;18.30;99.90
34135;DHT22;20410;55.578;12.968;2023-04-24T13:59:59;18.30;99.90
34135;DHT22;20410;55.578;12.968;2023-04-24T14:02:29;18.30;1.00
34135;DHT22;20410;55.578;12.968;2023-04-24T14:04:55;18.30;99.90
34135;DHT22;20410;55.578;12.968;2023-04-24T14:07:21;18.20;99.90
34135;DHT22;20410;55.578;12.968;2023-04-24T14:09:46;18.30;99.90
34135;DHT22;20410;55.578;12.968;2023-04-24T14:12:12;18.10;99.90
34135;DHT22;20410;55.578;12.968;2023-04-24T14:14:39;18.10;99.90
34135;DHT22;20410;55.578;12.968;2023-04-24T14:17:05;18.10;99.90
34135;DHT22;20410;55.578;12.968;2023-04-24T14:19:30;18.10;99.90
34135;DHT22;20410;55.578;12.968;2023-04-24T14:21:56;17.90;99.90
34135;DHT22;20410;55.578;12.968;2023-04-24T14:24:23;17.80;99.90
34135;DHT22;20410;55.578;12.968;2023-04-24T14:26:49;17.80;1.00
34135;DHT22;20410;55.578;12.968;2023-04-24T14:29:14;17.90;99.90
34135;DHT22;20410;55.578;12.968;2023-04-24T14:31:41;17.80;99.90
34135;DHT22;20410;55.578;12.968;2023-04-24T14:34:06;17.80;99.90
34135;DHT22;20410;55.578;12.968;2023-04-24T14:36:32;18.00;99.90
34135;DHT22;20410;55.578;12.968;2023-04-24T14:38:57;18.10;99.90
34135;DHT22;20410;55.578;12.968;2023-04-24T14:41:23;18.10;99.90
34135;DHT22;20410;55.578;12.968;2023-04-24T14:43:49;17.90;99.90
34135;DHT22;20410;55.578;12.968;2023-04-24T14:46:14;17.80;99.90
34135;DHT22;20410;55.578;12.968;2023-04-24T14:48:40;17.70;99.90
34135;DHT22;20410;55.578;12.968;2023-04-24T14:51:06;17.70;99.90
34135;DHT22;20410;55.578;12.968;2023-04-24T14:53:32;17.60;99.90
34135;DHT22;20410;55.578;12.968;2023-04-24T14:55:57;17.60;99.90
34135;DHT22;20410;55.578;12.968;2023-04-24T14:58:23;17.70;99.90
34135;DHT22;20410;55.578;12.968;2023-04-24T15:00:48;17.60;99.90
34135;DHT22;20410;55.578;12.968;2023-04-24T15:03:18;17.70;99.90
34135;DHT22;20410;55.578;12.968;2023-04-24T15:05:43;17.70;1.00
34135;DHT22;20410;55.578;12.968;2023-04-24T15:08:09;17.70;99.90
34135;DHT22;20410;55.578;12.968;2023-04-24T15:10:35;17.70;99.90
34135;DHT22;20410;55.578;12.968;2023-04-24T15:13:00;17.70;99.90
34135;DHT22;20410;55.578;12.968;2023-04-24T15:15:26;17.70;99.90
34135;DHT22;20410;55.578;12.968;2023-04-24T15:17:51;17.60;99.90
34135;DHT22;20410;55.578;12.968;2023-04-24T15:39:53;18.10;99.90
34135;DHT22;20410;55.578;12.968;2023-04-24T15:42:19;18.90;99.90
34135;DHT22;20410;55.578;12.968;2023-04-24T15:44:44;18.80;99.90
34135;DHT22;20410;55.578;12.968;2023-04-24T15:47:10;18.70;99.90
34135;DHT22;20410;55.578;12.968;2023-04-24T15:49:37;18.60;99.90
34135;DHT22;20410;55.578;12.968;2023-04-24T15:52:03;18.70;99.90
34135;DHT22;20410;55.578;12.968;2023-04-24T15:54:29;18.50;99.90
34135;DHT22;20410;55.578;12.968;2023-04-24T15:56:54;18.50;99.90
34135;DHT22;20410;55.578;12.968;2023-04-24T15:59:20;18.30;99.90
34135;DHT22;20410;55.578;12.968;2023-04-24T16:01:47;18.10;99.90
34135;DHT22;20410;55.578;12.968;2023-04-24T16:04:13;18.00;99.90
34135;DHT22;20410;55.578;12.968;2023-04-24T16:06:39;17.90;99.90